Time;durP1;ratioP1;P1;durP2;ratioP2;P2;SDS_P1;SDS_P2;PMS_P1;PMS_P2;Temp;Humidity;BMP_temperature;BMP_pressure;BME280_temperature;BME280_humidity;BME280_pressure;Samples;Min_cycle;Max_cycle;Signal;HPM_P1;HPM_P2
2022/04/04 00:00:38;;;;;;;2.40;2.20;;;;;;;19.08;45.06;97728.97;4893988;29;20751;-78
2022/04/04 00:03:10;;;;;;;2.17;2.00;;;;;;;19.41;45.12;97785.56;4893155;29;20209;-79
2022/04/04 00:05:39;;;;;;;3.27;2.17;;;;;;;19.41;45.17;97781.38;4894614;29;20317;-80
2022/04/04 00:08:06;;;;;;;2.53;2.33;;;;;;;19.40;45.32;97787.28;4895020;29;20273;-85
2022/04/04 00:10:33;;;;;;;2.07;1.87;;;;;;;19.40;45.13;97781.28;4868247;29;20233;-86
2022/04/04 00:13:00;;;;;;;2.13;1.93;;;;;;;17.86;45.24;97519.19;4893557;29;20218;-86
2022/04/04 00:15:27;;;;;;;2.10;1.90;;;;;;;19.39;45.09;97772.78;4847104;29;20199;-86
2022/04/04 00:17:57;;;;;;;2.87;1.90;;;;;;;15.87;45.24;97166.66;4883130;29;20212;-86
2022/04/04 00:20:25;;;;;;;2.47;2.27;;;;;;;17.83;45.17;97513.97;4888210;29;20218;-87
2022/04/04 00:22:51;;;;;;;2.47;2.23;;;;;;;12.05;45.03;96582.94;4894119;29;20202;-86
2022/04/04 00:25:18;;;;;;;2.20;2.00;;;;;;;16.90;45.07;97348.06;4891598;29;20202;-87
2022/04/04 00:27:51;;;;;;;2.03;1.93;;;;;;;9.89;44.98;96140.19;4895135;29;20209;-84
2022/04/04 00:30:20;;;;;;;2.57;2.37;;;;;;;18.36;45.34;97601.06;4968300;24;20256;-88
2022/04/04 00:32:47;;;;;;;2.13;1.93;;;;;;;17.70;45.08;97483.72;4883327;29;20209;-86
2022/04/04 00:35:14;;;;;;;2.40;2.20;;;;;;;18.83;45.08;97675.25;4892843;29;20210;-86
2022/04/04 00:37:42;;;;;;;2.33;2.13;;;;;;;18.16;45.14;97579.88;4898371;29;20216;-85
2022/04/04 00:40:09;;;;;;;2.10;2.00;;;;;;;17.63;44.98;97459.75;4879608;29;20217;-85
2022/04/04 00:42:38;;;;;;;2.47;2.27;;;;;;;16.41;45.04;97261.25;4903275;29;20233;-86
2022/04/04 00:45:13;;;;;;;2.40;2.20;;;;;;;16.44;45.27;97286.78;4916133;29;20202;-87
2022/04/04 00:47:42;;;;;;;2.60;2.40;;;;;;;18.55;44.92;97654.53;4902192;29;20616;-85
2022/04/04 00:50:09;;;;;;;1.83;1.73;;;;;;;19.37;44.98;97781.16;4897984;29;20226;-85
2022/04/04 00:52:37;;;;;;;2.10;2.00;;;;;;;18.89;45.11;97692.47;4883055;29;20220;-86
2022/04/04 00:55:06;;;;;;;2.40;2.20;;;;;;;17.42;44.78;97415.59;4898004;29;20202;-86
2022/04/04 00:57:34;;;;;;;2.80;2.10;;;;;;;18.94;44.69;97690.97;4901199;29;20211;-87
2022/04/04 01:00:09;;;;;;;2.03;1.90;;;;;;;17.75;44.60;97472.97;4914731;29;20319;-84
2022/04/04 01:02:37;;;;;;;2.60;2.40;;;;;;;18.61;44.62;97628.44;4894012;29;20264;-88
2022/04/04 01:05:04;;;;;;;2.03;1.90;;;;;;;16.62;44.93;97266.47;4883833;29;20627;-85
2022/04/04 01:07:40;;;;;;;2.00;1.90;;;;;;;19.52;44.87;97799.66;4918342;29;20584;-86
2022/04/04 01:10:08;;;;;;;2.40;2.20;;;;;;;19.30;44.61;97733.31;4897579;29;20288;-86
2022/04/04 01:12:51;;;;;;;2.10;2.00;;;;;;;18.68;44.58;97612.66;4902631;29;20551;-86
2022/04/04 01:15:19;;;;;;;2.00;1.90;;;;;;;17.85;44.43;97509.81;4897580;29;20197;-86
2022/04/04 01:17:46;;;;;;;2.23;2.10;;;;;;;19.14;44.67;97695.22;4913125;29;20206;-86
2022/04/04 01:20:12;;;;;;;2.10;1.90;;;;;;;17.43;44.48;97389.41;4896448;29;20778;-85
2022/04/04 01:22:40;;;;;;;2.53;2.33;;;;;;;18.73;44.68;97617.13;4916329;29;20224;-85
2022/04/04 01:25:09;;;;;;;2.37;2.17;;;;;;;18.47;44.63;97601.56;4897422;29;20628;-87
2022/04/04 01:27:36;;;;;;;2.00;1.90;;;;;;;18.10;44.55;97546.56;4896270;29;20202;-86
2022/04/04 01:30:03;;;;;;;2.57;2.20;;;;;;;17.33;44.35;97386.38;4888511;29;20249;-86
2022/04/04 01:32:30;;;;;;;2.60;2.30;;;;;;;18.17;44.79;97528.19;4891423;29;20767;-88
2022/04/04 01:34:56;;;;;;;2.57;2.37;;;;;;;17.28;44.46;97370.94;4896977;29;20197;-89
2022/04/04 01:37:23;;;;;;;1.90;1.80;;;;;;;17.62;44.79;97434.25;4899745;29;20283;-86
2022/04/04 01:39:50;;;;;;;2.30;2.10;;;;;;;17.10;44.82;97318.47;4898226;29;20213;-87
2022/04/04 01:42:16;;;;;;;2.70;2.50;;;;;;;17.72;44.87;97449.09;4897651;29;20568;-85
2022/04/04 01:44:43;;;;;;;2.30;2.10;;;;;;;17.08;44.90;97378.50;4927882;29;20295;-86
2022/04/04 01:47:10;;;;;;;2.33;2.13;;;;;;;18.71;45.04;97600.91;4913311;29;20260;-85
2022/04/04 01:49:37;;;;;;;1.97;1.87;;;;;;;16.68;45.25;97270.91;4883693;29;20249;-88
2022/04/04 01:52:06;;;;;;;2.63;2.00;;;;;;;19.10;44.84;97675.53;4899845;29;20344;-88
2022/04/04 01:54:33;;;;;;;2.00;1.90;;;;;;;16.97;45.18;97311.13;4912920;29;20297;-85
2022/04/04 01:57:00;;;;;;;2.40;2.20;;;;;;;18.45;44.99;97568.44;4896506;29;20289;-87
2022/04/04 01:59:27;;;;;;;2.10;2.00;;;;;;;17.53;44.69;97400.84;4906890;29;20746;-85
2022/04/04 02:01:54;;;;;;;2.37;2.17;;;;;;;15.15;44.80;96988.53;4914132;29;20322;-85
2022/04/04 02:04:21;;;;;;;1.90;1.80;;;;;;;17.67;45.14;97403.16;4915972;29;20201;-86
2022/04/04 02:06:48;;;;;;;2.30;2.10;;;;;;;14.17;44.86;96814.53;4888108;29;20266;-88
2022/04/04 02:09:14;;;;;;;2.20;2.10;;;;;;;14.65;44.92;96935.63;4922297;28;20217;-93
2022/04/04 02:11:50;;;;;;;2.13;2.00;;;;;;;15.85;45.19;97179.25;4931647;28;20283;-91
2022/04/04 02:17:02;;;;;;;2.50;2.30;;;;;;;17.74;44.88;97467.81;5138198;23;20217;-92
2022/04/04 02:19:30;;;;;;;2.30;2.10;;;;;;;16.82;44.94;97269.88;4933462;23;20242;-91
2022/04/04 02:21:57;;;;;;;2.50;2.30;;;;;;;15.56;44.87;97031.81;4904822;29;20211;-92
2022/04/04 02:24:24;;;;;;;2.40;2.20;;;;;;;14.09;44.42;96772.88;4892356;29;20273;-91
2022/04/04 02:27:09;;;;;;;2.07;1.93;;;;;;;13.70;45.10;96734.03;4909282;29;20190;-90
2022/04/04 02:40:08;;;;;;;2.63;2.30;;;;;;;11.69;44.96;96402.41;4939798;29;20241;-93
2022/04/04 02:43:09;;;;;;;2.40;2.20;;;;;;;15.61;44.92;97020.22;4913317;29;20218;-94
2022/04/04 02:45:35;;;;;;;1.97;1.80;;;;;;;16.74;44.92;97273.72;4925814;29;20193;-93
2022/04/04 02:51:01;;;;;;;2.20;2.10;;;;;;;14.09;44.67;96788.91;5132605;23;20467;-94
2022/04/04 02:53:28;;;;;;;2.00;1.90;;;;;;;15.74;44.61;97133.94;4895338;29;20497;-91
2022/04/04 02:58:41;;;;;;;2.30;2.10;;;;;;;15.58;44.32;97023.50;4906406;29;20204;-84
2022/04/04 03:01:08;;;;;;;2.03;1.93;;;;;;;15.90;44.52;97164.25;4883627;29;20229;-88
2022/04/04 03:03:35;;;;;;;2.73;2.47;;;;;;;15.90;44.39;97065.44;4871585;29;20333;-86
2022/04/04 03:06:02;;;;;;;2.00;1.90;;;;;;;15.77;44.68;97066.56;4875936;29;20198;-86
2022/04/04 03:08:29;;;;;;;2.30;2.10;;;;;;;17.20;44.41;97318.94;4882193;29;20209;-87
2022/04/04 03:10:56;;;;;;;2.40;2.20;;;;;;;16.78;44.43;97225.72;4879840;29;20455;-87
2022/04/04 03:13:23;;;;;;;2.47;2.27;;;;;;;17.66;44.41;97332.81;4880582;29;20379;-87
2022/04/04 03:15:51;;;;;;;2.13;2.03;;;;;;;17.18;44.71;97264.69;4870626;29;20292;-83
2022/04/04 03:18:21;;;;;;;2.40;2.20;;;;;;;13.78;44.11;96715.06;4864038;29;20217;-86
2022/04/04 03:20:50;;;;;;;2.23;2.03;;;;;;;16.10;45.00;97069.69;4880147;29;20269;-86
2022/04/04 03:23:16;;;;;;;2.40;2.10;;;;;;;17.67;44.38;97375.19;4878235;29;20309;-88
2022/04/04 03:25:43;;;;;;;2.30;2.10;;;;;;;17.65;44.55;97323.44;4883777;29;20206;-86
2022/04/04 03:28:10;;;;;;;2.40;2.20;;;;;;;19.08;44.46;97583.78;4883122;29;20264;-86
2022/04/04 03:30:37;;;;;;;2.30;2.10;;;;;;;18.90;44.75;97549.06;4903675;29;20678;-90
2022/04/04 03:33:03;;;;;;;2.23;2.03;;;;;;;19.43;44.62;97643.78;4895304;29;20224;-87
2022/04/04 03:35:33;;;;;;;2.30;2.10;;;;;;;17.11;44.35;97233.91;4886015;29;20590;-86
2022/04/04 03:38:01;;;;;;;2.50;2.30;;;;;;;17.66;44.32;97357.34;4881337;29;20209;-87
2022/04/04 03:40:28;;;;;;;2.57;2.37;;;;;;;19.08;44.53;97580.34;4878134;29;20277;-86
2022/04/04 03:42:56;;;;;;;2.00;1.90;;;;;;;18.77;44.34;97539.19;4892518;29;20224;-87
2022/04/04 03:45:24;;;;;;;2.50;2.30;;;;;;;19.04;44.12;97586.13;4894215;29;20205;-86
2022/04/04 03:47:51;;;;;;;2.20;2.00;;;;;;;18.27;44.53;97435.34;4886555;29;20263;-85
2022/04/04 03:50:17;;;;;;;2.63;2.43;;;;;;;19.24;44.61;97628.53;4901519;29;20295;-85
2022/04/04 03:52:47;;;;;;;2.07;1.93;;;;;;;19.43;44.48;97646.34;4884635;29;20266;-84
2022/04/04 03:55:14;;;;;;;3.03;2.27;;;;;;;19.41;44.51;97658.16;4897283;29;20210;-86
2022/04/04 03:57:41;;;;;;;2.37;2.17;;;;;;;19.11;44.75;97585.56;4879813;29;20587;-88
2022/04/04 04:00:08;;;;;;;2.20;2.10;;;;;;;19.24;44.50;97633.63;4885143;29;20252;-85
2022/04/04 04:02:35;;;;;;;2.10;2.00;;;;;;;17.85;44.63;97365.78;4876687;29;20217;-87
2022/04/04 04:05:02;;;;;;;2.33;2.13;;;;;;;18.90;44.82;97577.06;4898168;29;20225;-86
2022/04/04 04:07:31;;;;;;;2.20;2.03;;;;;;;18.55;44.96;97536.56;4883023;29;20273;-86
2022/04/04 04:09:57;;;;;;;2.50;2.30;;;;;;;15.66;44.55;97067.75;4882781;29;20206;-88
2022/04/04 04:12:24;;;;;;;2.37;2.20;;;;;;;18.37;44.75;97464.53;4872209;29;20351;-87
2022/04/04 04:14:51;;;;;;;1.80;1.70;;;;;;;19.25;44.45;97620.09;4870274;29;20230;-87
2022/04/04 04:17:21;;;;;;;2.47;2.27;;;;;;;18.86;44.65;97549.75;4891513;29;20562;-87
2022/04/04 04:22:34;;;;;;;2.40;2.20;;;;;;;18.45;44.75;97481.03;4887993;29;20198;-86
2022/04/04 04:25:01;;;;;;;2.30;2.10;;;;;;;18.14;44.57;97433.97;4885683;29;20837;-86
2022/04/04 04:27:27;;;;;;;2.50;2.30;;;;;;;14.74;44.53;96837.44;4867667;29;20588;-86
2022/04/04 04:29:55;;;;;;;2.30;2.10;;;;;;;19.35;44.96;97632.41;4867327;29;20213;-87
2022/04/04 04:32:22;;;;;;;2.20;2.00;;;;;;;18.67;44.83;97519.25;4897512;29;20229;-86
2022/04/04 04:34:50;;;;;;;2.27;2.07;;;;;;;18.75;44.64;97528.97;4882675;29;20598;-87
2022/04/04 04:37:17;;;;;;;2.60;2.40;;;;;;;17.77;44.67;97367.13;4898100;29;20205;-86
2022/04/04 04:39:44;;;;;;;2.50;2.30;;;;;;;17.96;44.79;97397.63;4898316;29;20657;-87
2022/04/04 04:42:10;;;;;;;2.57;2.37;;;;;;;18.88;44.84;97574.47;4897543;29;20210;-87
2022/04/04 04:44:37;;;;;;;2.40;2.20;;;;;;;19.03;44.73;97584.38;4898333;29;20639;-86
2022/04/04 04:47:04;;;;;;;2.50;2.30;;;;;;;18.82;44.85;97541.09;4898141;29;20292;-88
2022/04/04 04:49:32;;;;;;;2.63;2.43;;;;;;;18.88;44.01;97554.09;4897834;29;20220;-87
2022/04/04 04:51:58;;;;;;;3.57;3.27;;;;;;;19.22;43.08;97614.88;4895442;29;20328;-87
2022/04/04 04:54:26;;;;;;;5.80;5.20;;;;;;;18.94;38.39;97571.28;4881787;29;20735;-86
2022/04/04 04:56:53;;;;;;;6.83;5.37;;;;;;;17.39;36.17;97315.50;4917075;29;20267;-86
2022/04/04 04:59:19;;;;;;;8.20;6.00;;;;;;;18.77;35.43;97568.06;4885417;29;20303;-86
2022/04/04 05:01:46;;;;;;;9.30;6.30;;;;;;;18.90;34.43;97579.63;4885263;29;20670;-86
2022/04/04 05:04:12;;;;;;;7.43;6.23;;;;;;;19.00;33.69;97599.53;4885432;29;20240;-89
2022/04/04 05:06:40;;;;;;;6.87;6.17;;;;;;;17.62;33.36;97379.19;4897645;29;20674;-86
2022/04/04 05:09:06;;;;;;;7.57;6.03;;;;;;;19.05;32.76;97619.31;4898033;29;20245;-83
2022/04/04 05:11:33;;;;;;;8.47;6.90;;;;;;;18.01;32.67;97451.19;4910446;29;20225;-86
2022/04/04 05:13:59;;;;;;;7.83;7.03;;;;;;;19.29;32.35;97671.28;4889157;29;20923;-87
2022/04/04 05:16:28;;;;;;;9.27;7.80;;;;;;;18.68;32.44;97566.84;4900803;29;20287;-86
2022/04/04 05:18:56;;;;;;;8.43;7.47;;;;;;;19.06;32.16;97643.97;4895565;29;20771;-85
2022/04/04 05:21:23;;;;;;;8.80;7.53;;;;;;;18.70;31.91;97577.91;4889103;29;20671;-89
2022/04/04 05:23:49;;;;;;;9.50;8.43;;;;;;;18.67;31.42;97581.22;4885490;29;20245;-86
2022/04/04 05:26:16;;;;;;;8.37;7.47;;;;;;;19.02;31.58;97648.88;4897328;29;20590;-86
2022/04/04 05:28:43;;;;;;;9.87;8.47;;;;;;;18.85;31.57;97619.28;4896458;29;20297;-88
2022/04/04 05:31:10;;;;;;;8.87;7.93;;;;;;;18.43;30.24;97561.50;4897226;29;20667;-86
2022/04/04 05:33:37;;;;;;;8.80;7.70;;;;;;;18.91;30.87;97655.19;4896165;29;20239;-87
2022/04/04 05:36:04;;;;;;;9.10;8.17;;;;;;;18.42;31.97;97573.38;4898634;29;20220;-86
2022/04/04 05:38:32;;;;;;;8.13;7.33;;;;;;;18.86;33.42;97649.91;4885118;29;20256;-89
2022/04/04 05:40:59;;;;;;;8.17;6.93;;;;;;;18.50;34.71;97589.81;4884717;29;20295;-88
2022/04/04 05:43:25;;;;;;;8.23;6.80;;;;;;;18.41;35.31;97575.88;4901655;29;20205;-86
2022/04/04 05:45:53;;;;;;;7.00;6.30;;;;;;;18.75;36.01;97635.00;4904001;29;20240;-86
2022/04/04 05:48:19;;;;;;;6.80;6.10;;;;;;;17.67;36.86;97450.56;4893087;29;20288;-86
2022/04/04 05:50:46;;;;;;;8.53;6.40;;;;;;;18.68;36.94;97607.56;4900030;29;20315;-86
2022/04/04 05:53:13;;;;;;;6.93;6.17;;;;;;;18.27;37.09;97543.84;4904149;29;20256;-85
2022/04/04 05:55:39;;;;;;;9.33;6.13;;;;;;;18.63;36.91;97609.03;4888343;29;20338;-86
2022/04/04 05:58:06;;;;;;;6.97;6.23;;;;;;;18.86;37.34;97641.41;4903850;29;20718;-85
2022/04/04 06:00:32;;;;;;;6.73;6.03;;;;;;;18.04;37.83;97500.50;4918863;29;20260;-86
2022/04/04 06:02:59;;;;;;;6.37;5.77;;;;;;;18.50;37.94;97582.19;4888183;29;20292;-86
2022/04/04 06:05:26;;;;;;;7.40;5.83;;;;;;;18.32;38.02;97540.69;4887455;29;20232;-86
2022/04/04 06:07:53;;;;;;;9.20;5.67;;;;;;;18.54;38.19;97571.34;4871543;29;20213;-86
2022/04/04 06:10:20;;;;;;;6.53;5.40;;;;;;;18.55;38.47;97575.63;4896303;29;20313;-86
2022/04/04 06:12:47;;;;;;;6.60;5.27;;;;;;;18.70;38.91;97595.75;4911447;29;20318;-87
2022/04/04 06:15:16;;;;;;;6.83;5.60;;;;;;;18.80;38.99;97625.88;4912060;29;20285;-86
2022/04/04 06:17:44;;;;;;;8.70;5.57;;;;;;;18.94;39.26;97640.91;4911787;29;20548;-86
2022/04/04 06:20:11;;;;;;;5.57;4.90;;;;;;;18.65;39.07;97585.38;4896194;29;20240;-87
2022/04/04 06:22:38;;;;;;;5.97;5.13;;;;;;;18.79;39.72;97596.13;4911267;29;20280;-88
2022/04/04 06:25:07;;;;;;;9.03;5.20;;;;;;;18.33;39.54;97523.75;4911941;29;20217;-87
2022/04/04 06:27:35;;;;;;;5.97;4.77;;;;;;;18.69;39.77;97582.16;4927193;29;20225;-86
2022/04/04 06:30:05;;;;;;;5.70;5.10;;;;;;;18.56;39.79;97558.69;4928094;29;20332;-86
2022/04/04 06:32:32;;;;;;;5.77;5.07;;;;;;;19.19;40.06;97671.66;4910822;29;20248;-86
2022/04/04 06:34:58;;;;;;;6.47;5.13;;;;;;;18.64;40.06;97573.47;4912448;29;20588;-85
2022/04/04 06:37:25;;;;;;;6.23;4.90;;;;;;;18.62;40.04;97569.13;4911491;29;20237;-85
2022/04/04 06:39:52;;;;;;;5.00;4.50;;;;;;;19.20;40.20;97667.44;4895469;29;20261;-86
2022/04/04 06:42:19;;;;;;;4.97;4.57;;;;;;;18.58;40.62;97572.31;4895185;29;20240;-86
2022/04/04 06:44:45;;;;;;;4.83;4.43;;;;;;;18.81;40.57;97625.94;4895387;29;20819;-86
2022/04/04 06:47:13;;;;;;;5.40;4.60;;;;;;;18.54;40.66;97545.91;4895749;29;20296;-82
2022/04/04 06:49:40;;;;;;;5.27;4.77;;;;;;;18.47;38.22;97530.31;4911002;29;20292;-86
2022/04/04 06:52:07;;;;;;;6.77;5.50;;;;;;;19.00;37.93;97627.56;4909492;29;20583;-85
2022/04/04 06:54:34;;;;;;;6.30;5.43;;;;;;;19.21;38.50;97659.88;4889546;29;20636;-85
2022/04/04 06:57:01;;;;;;;6.80;4.93;;;;;;;18.88;39.13;97596.50;4892794;29;20263;-86
2022/04/04 06:59:28;;;;;;;5.37;4.80;;;;;;;18.68;39.03;97572.75;4880059;29;20336;-85
2022/04/04 07:01:55;;;;;;;5.30;4.80;;;;;;;18.70;39.08;97572.84;4879560;29;20234;-86
2022/04/04 07:04:21;;;;;;;5.07;4.57;;;;;;;17.49;39.45;97356.63;4911851;29;20813;-87
2022/04/04 07:06:48;;;;;;;5.37;4.67;;;;;;;18.82;39.83;97584.41;4878081;29;20250;-86
2022/04/04 07:09:14;;;;;;;6.47;4.90;;;;;;;18.87;39.80;97600.75;4910973;29;20313;-86
2022/04/04 07:11:41;;;;;;;5.17;4.67;;;;;;;18.57;40.06;97543.47;4903249;29;20263;-87
2022/04/04 07:14:10;;;;;;;4.97;4.47;;;;;;;18.77;40.21;97564.66;4917676;29;20605;-85
2022/04/04 07:16:36;;;;;;;5.80;4.57;;;;;;;18.40;40.36;97515.59;4887063;29;20288;-85
2022/04/04 07:19:03;;;;;;;5.00;4.50;;;;;;;18.72;40.72;97563.59;4883610;29;21072;-87
2022/04/04 07:21:30;;;;;;;5.30;4.73;;;;;;;19.23;40.56;97644.63;4889383;29;20253;-86
2022/04/04 07:23:56;;;;;;;4.77;4.07;;;;;;;18.72;40.50;97554.28;4883055;29;20732;-86
2022/04/04 07:26:23;;;;;;;4.77;4.30;;;;;;;18.96;40.45;97606.19;4897054;29;20210;-85
2022/04/04 07:28:50;;;;;;;6.07;4.20;;;;;;;19.03;40.77;97608.19;4896607;29;20209;-86
2022/04/04 07:31:17;;;;;;;4.63;4.20;;;;;;;18.82;40.81;97570.78;4884868;29;20594;-86
2022/04/04 07:33:44;;;;;;;5.10;4.20;;;;;;;18.72;40.90;97558.50;4887739;29;20232;-87
2022/04/04 07:36:11;;;;;;;4.60;4.00;;;;;;;18.64;41.04;97542.91;4883293;29;20209;-87
2022/04/04 07:38:38;;;;;;;4.40;4.00;;;;;;;18.47;40.90;97505.72;4868432;29;20202;-86
2022/04/04 07:41:05;;;;;;;4.40;4.00;;;;;;;18.70;40.70;97545.72;4874373;29;20232;-84
2022/04/04 07:43:31;;;;;;;4.30;3.90;;;;;;;18.67;40.95;97537.06;4891724;29;20292;-85
2022/04/04 07:45:58;;;;;;;3.97;3.57;;;;;;;18.93;41.41;97585.72;4898014;29;20284;-85
2022/04/04 07:48:25;;;;;;;4.60;4.07;;;;;;;18.87;40.28;97574.41;4913872;29;20624;-84
2022/04/04 07:50:51;;;;;;;4.70;4.30;;;;;;;18.64;39.83;97536.94;4882202;29;20324;-86
2022/04/04 07:53:18;;;;;;;4.90;4.40;;;;;;;18.87;40.15;97566.75;4865243;29;20645;-86
2022/04/04 07:55:45;;;;;;;4.10;3.70;;;;;;;18.77;40.61;97552.78;4882363;29;20213;-84
2022/04/04 07:58:14;;;;;;;4.20;3.63;;;;;;;18.52;40.42;97508.44;4864716;29;20668;-85
2022/04/04 08:00:41;;;;;;;4.33;3.90;;;;;;;18.66;40.51;97533.69;4904180;29;20230;-85
2022/04/04 08:03:07;;;;;;;4.20;3.80;;;;;;;18.78;40.59;97549.44;4878571;29;20206;-84
2022/04/04 08:05:34;;;;;;;6.93;3.93;;;;;;;18.68;40.59;97537.13;4878518;29;20209;-85
2022/04/04 08:08:01;;;;;;;4.17;3.77;;;;;;;18.50;41.11;97492.28;4875923;29;20601;-86
2022/04/04 08:10:27;;;;;;;3.63;3.33;;;;;;;18.70;41.01;97535.53;4870529;29;20249;-85
2022/04/04 08:12:54;;;;;;;4.00;3.60;;;;;;;18.58;40.84;97512.13;4865915;29;20226;-85
2022/04/04 08:15:21;;;;;;;4.20;3.80;;;;;;;18.64;41.11;97524.22;4868330;29;20242;-86
2022/04/04 08:17:55;;;;;;;3.77;3.47;;;;;;;19.08;41.22;97600.72;4893659;29;20209;-85
2022/04/04 08:20:21;;;;;;;4.00;3.60;;;;;;;18.72;41.05;97520.31;4879098;29;20230;-84
2022/04/04 08:22:48;;;;;;;4.20;3.80;;;;;;;18.68;41.09;97521.00;4863561;29;20704;-86
2022/04/04 08:25:15;;;;;;;3.80;3.50;;;;;;;18.87;41.58;97582.03;4878098;29;20293;-85
2022/04/04 08:27:43;;;;;;;3.90;3.50;;;;;;;19.09;41.42;97590.59;4864294;29;20242;-86
2022/04/04 08:30:12;;;;;;;3.80;3.50;;;;;;;18.72;41.13;97523.75;4878930;29;20226;-86
2022/04/04 08:32:39;;;;;;;3.83;3.40;;;;;;;18.91;41.49;97555.88;4863817;29;20364;-85
2022/04/04 08:35:06;;;;;;;4.00;3.60;;;;;;;18.89;41.49;97545.63;4882390;29;20240;-85
2022/04/04 08:37:36;;;;;;;3.70;3.40;;;;;;;18.90;41.60;97549.06;4853962;29;20214;-84
2022/04/04 08:40:06;;;;;;;3.60;3.30;;;;;;;18.32;41.64;97466.91;4879490;29;20240;-82
2022/04/04 08:42:32;;;;;;;3.63;3.33;;;;;;;18.90;41.71;97541.41;4865736;29;20292;-85
2022/04/04 08:45:00;;;;;;;3.60;3.30;;;;;;;18.66;41.56;97507.34;4879599;29;20296;-85
2022/04/04 08:47:29;;;;;;;3.30;3.00;;;;;;;18.38;41.74;97443.44;4871682;29;20213;-85
2022/04/04 08:49:56;;;;;;;3.83;3.53;;;;;;;16.63;41.56;97146.41;4873330;29;20232;-84
2022/04/04 08:52:23;;;;;;;3.30;3.10;;;;;;;18.32;41.55;97456.72;4913810;29;20301;-84
2022/04/04 08:54:50;;;;;;;3.63;3.20;;;;;;;18.81;41.52;97523.22;4897851;29;20206;-85
2022/04/04 08:57:17;;;;;;;3.70;3.40;;;;;;;19.19;41.80;97579.09;4882752;29;20312;-85
2022/04/04 08:59:44;;;;;;;3.50;3.20;;;;;;;18.23;41.51;97429.25;4901381;29;20201;-85
2022/04/04 09:02:11;;;;;;;3.30;3.00;;;;;;;17.72;41.47;97302.56;4886341;29;20209;-82
2022/04/04 09:04:39;;;;;;;3.13;2.93;;;;;;;19.30;41.73;97568.53;4896325;29;20233;-85
2022/04/04 09:07:09;;;;;;;3.37;3.07;;;;;;;18.32;41.81;97405.00;4874992;29;20309;-85
2022/04/04 09:09:37;;;;;;;3.00;2.70;;;;;;;19.32;41.89;97564.38;4863741;29;20211;-85
2022/04/04 09:12:15;;;;;;;3.30;3.00;;;;;;;18.62;41.84;97431.69;4878444;29;20364;-85
2022/04/04 09:15:00;;;;;;;3.33;3.03;;;;;;;18.49;41.77;97412.50;4864205;29;20233;-85
2022/04/04 09:17:32;;;;;;;3.33;3.03;;;;;;;18.70;41.65;97453.19;4881861;29;20202;-85
2022/04/04 09:19:59;;;;;;;3.00;2.80;;;;;;;19.18;41.71;97529.81;4870183;29;20214;-85
2022/04/04 09:22:26;;;;;;;3.13;2.80;;;;;;;17.73;41.92;97276.34;4881725;29;20214;-85
2022/04/04 09:24:57;;;;;;;3.27;2.97;;;;;;;18.61;41.84;97420.63;4921776;29;20664;-85
2022/04/04 09:27:26;;;;;;;3.43;3.13;;;;;;;19.32;41.85;97540.56;4897653;29;20237;-85
2022/04/04 09:29:54;;;;;;;3.20;2.90;;;;;;;19.31;41.70;97546.47;4896821;29;20713;-85
2022/04/04 09:32:21;;;;;;;3.30;2.70;;;;;;;18.92;42.10;97465.97;4904289;29;20276;-85
2022/04/04 09:34:52;;;;;;;3.37;3.00;;;;;;;19.32;42.11;97531.25;4915511;29;20315;-85
2022/04/04 09:37:19;;;;;;;2.90;2.70;;;;;;;18.04;42.13;97319.97;4932960;29;20659;-85
2022/04/04 09:39:46;;;;;;;2.60;2.40;;;;;;;18.09;42.10;97309.97;4899707;29;20240;-86
2022/04/04 09:42:33;;;;;;;3.70;2.70;;;;;;;18.86;42.05;97441.13;4918519;29;20584;-85
2022/04/04 09:45:11;;;;;;;2.80;2.60;;;;;;;18.77;42.29;97422.09;4932417;29;20766;-85
2022/04/04 09:47:53;;;;;;;3.00;2.70;;;;;;;19.33;42.02;97520.25;4884768;29;20205;-86
2022/04/04 09:50:38;;;;;;;2.80;2.60;;;;;;;19.33;41.88;97520.25;4915055;29;20335;-85
2022/04/04 09:53:11;;;;;;;2.70;2.50;;;;;;;18.78;42.17;97421.28;4932406;29;20228;-85
2022/04/04 09:55:46;;;;;;;3.33;3.03;;;;;;;18.18;41.90;97341.72;4899622;29;20240;-85
2022/04/04 09:58:15;;;;;;;2.60;2.40;;;;;;;18.49;42.03;97393.81;4884500;29;20291;-85
2022/04/04 10:00:44;;;;;;;2.87;2.60;;;;;;;18.92;42.18;97435.41;4915369;29;20221;-85
2022/04/04 10:03:14;;;;;;;3.10;2.80;;;;;;;18.75;42.14;97401.66;4899741;29;20561;-85
2022/04/04 10:05:55;;;;;;;2.60;2.40;;;;;;;19.35;42.27;97494.81;4885219;29;20205;-85
2022/04/04 10:08:23;;;;;;;3.17;2.87;;;;;;;19.13;42.08;97462.53;4883984;29;20202;-86
2022/04/04 10:10:50;;;;;;;2.60;2.40;;;;;;;17.38;42.00;97159.69;4896364;29;20330;-84
2022/04/04 10:13:17;;;;;;;2.50;2.30;;;;;;;18.61;42.20;97363.75;4911502;29;20232;-85
2022/04/04 10:15:44;;;;;;;4.50;2.70;;;;;;;18.72;42.40;97373.56;4911272;29;20287;-85
2022/04/04 10:18:11;;;;;;;2.80;2.50;;;;;;;19.08;42.17;97448.78;4911480;29;20208;-85
2022/04/04 10:20:38;;;;;;;2.50;2.30;;;;;;;17.96;41.93;97267.06;4896138;29;20233;-85
2022/04/04 10:23:05;;;;;;;2.60;2.40;;;;;;;18.49;42.16;97322.56;4896349;29;20320;-85
2022/04/04 10:25:32;;;;;;;2.57;2.37;;;;;;;18.38;42.39;97303.50;4896092;29;20241;-85
2022/04/04 10:27:59;;;;;;;2.50;2.30;;;;;;;18.41;42.31;97307.00;4911919;29;20546;-85
2022/04/04 10:30:40;;;;;;;2.40;2.20;;;;;;;17.80;42.20;97196.97;4911295;29;20287;-85
2022/04/04 10:33:18;;;;;;;2.40;2.20;;;;;;;18.97;42.11;97394.00;4927286;29;20664;-85
2022/04/04 10:36:01;;;;;;;2.60;2.40;;;;;;;19.34;42.20;97442.13;4911523;29;20305;-85
2022/04/04 10:38:31;;;;;;;2.60;2.40;;;;;;;17.45;42.28;97141.41;4896377;29;20205;-85
2022/04/04 10:40:58;;;;;;;2.67;2.47;;;;;;;18.95;42.07;97408.34;4895091;29;20253;-85
2022/04/04 10:43:25;;;;;;;2.53;2.33;;;;;;;18.58;42.33;97305.09;4896576;29;20308;-85
2022/04/04 10:45:59;;;;;;;2.50;2.30;;;;;;;18.88;42.28;97352.06;4895872;29;20595;-84
2022/04/04 10:48:30;;;;;;;2.50;2.30;;;;;;;18.66;42.44;97298.63;4911147;29;20245;-82
2022/04/04 10:51:17;;;;;;;2.70;2.50;;;;;;;19.35;42.78;97423.47;4926295;29;20304;-85
2022/04/04 10:53:54;;;;;;;2.47;2.27;;;;;;;19.14;42.43;97382.78;4896648;29;20217;-86
2022/04/04 10:56:22;;;;;;;2.77;2.57;;;;;;;18.50;42.42;97260.72;4895494;29;20241;-85
2022/04/04 10:58:53;;;;;;;2.07;1.97;;;;;;;19.30;42.43;97399.53;4895486;29;20293;-85
2022/04/04 11:01:21;;;;;;;2.20;2.10;;;;;;;18.93;42.51;97331.06;4910584;29;20772;-85
2022/04/04 11:03:51;;;;;;;2.57;2.37;;;;;;;19.35;42.62;97400.53;4911064;29;20299;-85
2022/04/04 11:09:32;;;;;;;2.53;2.33;;;;;;;17.76;42.51;97120.53;4828613;29;20696;-85
2022/04/04 11:12:00;;;;;;;2.37;2.17;;;;;;;19.35;42.59;97387.78;4880996;29;20233;-85
2022/04/04 11:14:26;;;;;;;2.43;2.23;;;;;;;19.34;42.30;97380.97;4926654;29;20259;-85
2022/04/04 11:17:08;;;;;;;2.57;2.37;;;;;;;19.34;42.65;97374.22;4909769;29;20579;-86
2022/04/04 11:19:57;;;;;;;2.17;2.03;;;;;;;19.00;42.54;97304.13;4910212;29;20718;-85
2022/04/04 11:22:25;;;;;;;2.30;2.00;;;;;;;19.12;42.62;97320.72;4895585;29;20213;-85
2022/04/04 11:25:03;;;;;;;2.20;2.00;;;;;;;19.34;42.50;97364.00;4894830;29;20212;-86
2022/04/04 11:27:34;;;;;;;2.33;2.13;;;;;;;18.40;42.72;97189.94;4894687;29;20232;-85
2022/04/04 11:30:08;;;;;;;2.20;2.00;;;;;;;19.34;42.62;97348.72;4883539;29;20236;-86
2022/04/04 11:32:38;;;;;;;2.67;2.47;;;;;;;17.91;42.56;97094.03;4909436;29;20711;-83
2022/04/04 11:35:11;;;;;;;2.23;2.03;;;;;;;18.72;42.69;97232.66;4879682;29;20239;-86
2022/04/04 11:37:42;;;;;;;2.53;2.33;;;;;;;18.74;42.65;97241.25;4910432;29;20288;-86
2022/04/04 11:40:13;;;;;;;2.63;2.40;;;;;;;19.09;42.67;97300.22;4878942;29;20669;-85
2022/04/04 11:42:44;;;;;;;2.10;2.00;;;;;;;18.77;42.61;97257.47;4894814;29;20252;-85
2022/04/04 11:45:16;;;;;;;2.40;2.20;;;;;;;18.69;42.44;97218.16;4892115;29;20581;-86
2022/04/04 11:47:56;;;;;;;2.10;1.90;;;;;;;19.35;42.62;97331.72;4890446;29;20291;-86
2022/04/04 11:50:28;;;;;;;2.13;2.03;;;;;;;18.82;42.63;97224.53;4909637;29;20272;-85
2022/04/04 11:52:59;;;;;;;2.20;2.00;;;;;;;19.04;42.54;97265.22;4867921;29;20305;-84
2022/04/04 11:55:27;;;;;;;2.70;2.50;;;;;;;18.77;42.13;97214.19;4894715;29;20290;-85
2022/04/04 11:57:58;;;;;;;2.50;2.30;;;;;;;17.92;42.29;97075.41;4879610;29;20241;-86
2022/04/04 12:00:32;;;;;;;2.30;2.10;;;;;;;18.66;42.28;97192.59;4910155;29;20743;-85
2022/04/04 12:03:04;;;;;;;2.03;1.93;;;;;;;19.08;42.35;97247.56;4895253;29;20209;-86
2022/04/04 12:05:33;;;;;;;2.23;2.03;;;;;;;18.87;42.46;97215.38;4910188;29;20241;-86